createdAt,value
2023-05-12T00:00:26.080Z,12.06
2023-05-12T00:02:54.290Z,12.17
2023-05-12T00:05:22.246Z,11.94
2023-05-12T00:07:49.877Z,11.86
2023-05-12T00:10:18.188Z,12.06
2023-05-12T00:12:45.992Z,12.12
2023-05-12T00:15:13.876Z,11.92
2023-05-12T00:17:42.452Z,12.19
2023-05-12T00:20:10.901Z,12.46
2023-05-12T00:22:39.500Z,12.23
2023-05-12T00:25:07.781Z,12.36
2023-05-12T00:27:35.646Z,12.47
2023-05-12T00:30:03.436Z,12.06
2023-05-12T00:32:32.109Z,12.12
2023-05-12T00:35:00.180Z,12.50
2023-05-12T00:37:28.554Z,12.25
2023-05-12T00:39:56.689Z,12.16
2023-05-12T00:42:24.489Z,12.36
2023-05-12T00:44:52.199Z,12.17
2023-05-12T00:47:20.868Z,12.16
2023-05-12T00:49:48.923Z,12.38
2023-05-12T00:52:16.635Z,12.25
2023-05-12T00:54:44.790Z,12.29
2023-05-12T00:57:12.739Z,12.58
2023-05-12T00:59:40.579Z,12.30
2023-05-12T01:02:09.082Z,12.24
2023-05-12T01:04:38.889Z,12.29
2023-05-12T01:07:10.182Z,12.43
2023-05-12T01:09:38.956Z,12.22
2023-05-12T01:12:06.982Z,12.70
2023-05-12T01:14:35.480Z,12.39
2023-05-12T01:17:03.901Z,12.39
2023-05-12T01:19:31.780Z,12.55
2023-05-12T01:21:59.662Z,12.27
2023-05-12T01:24:27.880Z,12.20
2023-05-12T01:26:55.581Z,12.30
2023-05-12T01:29:23.252Z,12.36
2023-05-12T01:31:51.953Z,12.32
2023-05-12T01:34:19.862Z,12.16
2023-05-12T01:36:48.024Z,12.30
2023-05-12T01:39:16.107Z,12.36
2023-05-12T01:41:44.029Z,12.19
2023-05-12T01:44:11.958Z,12.59
2023-05-12T01:46:40.446Z,12.30
2023-05-12T01:49:09.707Z,12.50
2023-05-12T01:51:37.791Z,12.31
2023-05-12T01:54:06.147Z,12.31
2023-05-12T01:56:34.515Z,12.44
2023-05-12T01:59:02.267Z,12.50
2023-05-12T02:01:32.516Z,12.02
2023-05-12T02:04:06.341Z,12.32
2023-05-12T02:06:34.805Z,12.34
2023-05-12T02:09:03.276Z,12.30
2023-05-12T02:11:31.072Z,12.37
2023-05-12T02:13:59.005Z,12.47
2023-05-12T02:16:27.347Z,12.86
2023-05-12T02:18:55.272Z,12.69
2023-05-12T02:21:23.063Z,12.44
2023-05-12T02:23:52.265Z,12.67
2023-05-12T02:26:20.029Z,12.57
2023-05-12T02:28:48.089Z,12.89
2023-05-12T02:31:16.912Z,12.50
2023-05-12T02:33:44.793Z,12.36
2023-05-12T02:36:12.963Z,12.47
2023-05-12T02:38:41.515Z,12.57
2023-05-12T02:41:10.587Z,12.51
2023-05-12T02:43:41.757Z,12.69
2023-05-12T02:46:10.011Z,12.19
2023-05-12T02:48:38.746Z,12.42
2023-05-12T02:51:07.642Z,12.36
2023-05-12T02:53:36.804Z,12.80
2023-05-12T02:56:07.130Z,12.39
2023-05-12T02:58:36.522Z,12.42
2023-05-12T03:01:11.428Z,12.35
2023-05-12T03:03:40.245Z,12.23
2023-05-12T03:06:10.011Z,12.36
2023-05-12T03:08:38.388Z,12.44
2023-05-12T03:11:09.587Z,12.09
2023-05-12T03:13:38.570Z,12.04
2023-05-12T03:16:12.920Z,11.92
2023-05-12T03:18:42.030Z,12.28
2023-05-12T03:21:10.830Z,12.41
2023-05-12T03:23:42.959Z,12.45
2023-05-12T03:26:16.527Z,12.48
2023-05-12T03:28:47.495Z,12.20
2023-05-12T03:31:24.411Z,12.40
2023-05-12T03:33:54.567Z,12.81
2023-05-12T03:36:23.986Z,12.38
2023-05-12T03:38:52.780Z,12.44
2023-05-12T03:41:23.816Z,12.64
2023-05-12T03:43:52.430Z,12.49
2023-05-12T03:46:23.206Z,12.32
2023-05-12T03:48:53.980Z,12.52
2023-05-12T03:51:24.162Z,12.29
2023-05-12T03:53:53.789Z,12.57
2023-05-12T03:56:26.818Z,12.26
2023-05-12T03:59:00.648Z,12.14
2023-05-12T04:01:29.684Z,12.47
2023-05-12T04:04:00.245Z,12.40
2023-05-12T04:06:28.007Z,12.61
2023-05-12T04:08:56.319Z,12.70
2023-05-12T04:11:25.431Z,12.77
2023-05-12T04:16:44.813Z,12.60
2023-05-12T04:19:14.206Z,12.20
2023-05-12T04:21:43.737Z,12.31
2023-05-12T04:24:15.946Z,12.54
2023-05-12T04:26:45.734Z,12.60
2023-05-12T04:29:18.879Z,12.50
2023-05-12T04:34:40.265Z,12.31
2023-05-12T04:37:11.428Z,12.25
2023-05-12T04:39:44.249Z,12.41
2023-05-12T04:42:37.374Z,12.61
2023-05-12T04:45:56.428Z,12.56
2023-05-12T04:48:32.658Z,12.43
2023-05-12T04:53:51.341Z,12.29
2023-05-12T04:56:42.391Z,12.12
2023-05-12T04:59:16.881Z,12.42
2023-05-12T05:02:09.451Z,12.82
2023-05-12T05:04:39.161Z,12.63
2023-05-12T05:07:29.513Z,12.52
2023-05-12T05:10:10.072Z,12.47
2023-05-12T05:12:43.723Z,12.51
2023-05-12T05:15:37.900Z,13.12
2023-05-12T05:18:09.602Z,12.95
2023-05-12T05:20:57.238Z,12.96
2023-05-12T05:23:31.545Z,12.68
2023-05-12T05:26:06.929Z,12.90
2023-05-12T05:28:40.661Z,12.81
2023-05-12T05:31:16.934Z,12.51
2023-05-12T05:33:51.075Z,12.65
2023-05-12T05:36:37.117Z,12.60
2023-05-12T05:39:23.962Z,12.87
2023-05-12T05:41:52.111Z,12.87
2023-05-12T05:44:20.318Z,13.01
2023-05-12T05:46:51.487Z,13.14
2023-05-12T05:49:20.372Z,12.99
2023-05-12T05:51:51.819Z,13.21
2023-05-12T05:54:33.371Z,13.06
2023-05-12T05:57:14.271Z,12.95
2023-05-12T05:59:50.842Z,12.83
2023-05-12T06:02:43.768Z,13.06
2023-05-12T06:05:20.208Z,13.21
2023-05-12T06:07:54.862Z,13.26
2023-05-12T06:10:26.086Z,13.25
2023-05-12T06:12:55.687Z,13.27
2023-05-12T06:15:23.866Z,13.15
2023-05-12T06:17:51.733Z,12.73
2023-05-12T06:20:20.708Z,12.86
2023-05-12T06:22:49.345Z,12.67
2023-05-12T06:25:17.753Z,12.86
2023-05-12T06:27:45.718Z,12.97
2023-05-12T06:30:15.938Z,12.82
2023-05-12T06:32:44.226Z,13.00
2023-05-12T06:35:12.090Z,13.24
2023-05-12T06:37:40.401Z,12.98
2023-05-12T06:40:09.373Z,13.34
2023-05-12T06:42:37.216Z,13.64
2023-05-12T06:45:09.808Z,13.30
2023-05-12T06:47:37.728Z,13.51
2023-05-12T06:50:06.164Z,13.27
2023-05-12T06:52:34.812Z,13.72
2023-05-12T06:55:03.164Z,13.49
2023-05-12T06:57:31.607Z,13.57
2023-05-12T07:00:00.885Z,13.83
2023-05-12T07:02:28.926Z,13.76
2023-05-12T07:04:56.892Z,13.80
2023-05-12T07:07:26.663Z,13.68
2023-05-12T07:09:54.421Z,13.85
2023-05-12T07:12:22.245Z,13.62
2023-05-12T07:14:50.382Z,14.28
2023-05-12T07:17:18.128Z,13.74
2023-05-12T07:19:45.958Z,13.49
2023-05-12T07:22:14.421Z,13.85
2023-05-12T07:24:42.219Z,13.80
2023-05-12T07:27:10.033Z,14.00
2023-05-12T07:29:38.928Z,13.87
2023-05-12T07:32:06.844Z,14.29
2023-05-12T07:34:34.714Z,13.93
2023-05-12T07:37:04.284Z,13.67
2023-05-12T07:39:32.660Z,13.68
2023-05-12T07:42:00.438Z,13.65
2023-05-12T07:44:28.811Z,13.99
2023-05-12T07:46:56.678Z,13.64
2023-05-12T07:49:24.506Z,13.69
2023-05-12T07:51:52.721Z,13.99
2023-05-12T07:54:20.963Z,13.86
2023-05-12T07:56:48.964Z,14.26
2023-05-12T07:59:17.354Z,14.22
2023-05-12T08:01:45.245Z,14.27
2023-05-12T08:04:13.686Z,14.60
2023-05-12T08:06:41.670Z,14.56
2023-05-12T08:09:09.506Z,14.21
2023-05-12T08:11:38.133Z,14.48
2023-05-12T08:14:06.569Z,14.37
2023-05-12T08:16:34.465Z,14.32
2023-05-12T08:19:02.762Z,14.39
2023-05-12T08:21:31.959Z,14.46
2023-05-12T08:23:59.807Z,15.01
2023-05-12T08:26:28.922Z,15.24
2023-05-12T08:28:56.840Z,14.50
2023-05-12T08:31:24.796Z,14.81
2023-05-12T08:34:09.112Z,14.94
2023-05-12T08:36:40.458Z,15.14
2023-05-12T08:39:10.507Z,14.31
2023-05-12T08:41:46.051Z,14.39
2023-05-12T08:44:14.295Z,14.22
2023-05-12T08:46:42.700Z,13.87
2023-05-12T08:49:12.521Z,14.48
2023-05-12T08:51:40.881Z,14.60
2023-05-12T08:54:09.208Z,14.49
2023-05-12T08:59:09.479Z,14.57
2023-05-12T09:01:37.542Z,14.80
2023-05-12T09:04:24.307Z,14.54
2023-05-12T09:06:54.977Z,14.29
2023-05-12T09:09:23.687Z,13.95
2023-05-12T09:11:51.426Z,14.32
2023-05-12T09:14:19.689Z,14.43
2023-05-12T09:16:49.479Z,14.39
2023-05-12T09:19:21.414Z,13.92
2023-05-12T09:21:50.323Z,14.30
2023-05-12T09:24:18.029Z,14.34
2023-05-12T09:26:49.072Z,13.89
2023-05-12T09:29:27.873Z,13.84
2023-05-12T09:31:59.939Z,13.53
2023-05-12T09:34:29.653Z,13.53
2023-05-12T09:36:57.901Z,13.54
2023-05-12T09:39:26.142Z,13.95
2023-05-12T09:41:54.689Z,13.78
2023-05-12T09:44:23.392Z,13.51
2023-05-12T09:46:51.688Z,13.46
2023-05-12T09:49:20.642Z,12.85
2023-05-12T09:51:52.169Z,13.14
2023-05-12T09:54:26.971Z,13.15
2023-05-12T09:56:57.348Z,13.67
2023-05-12T09:59:27.309Z,13.53
2023-05-12T10:01:55.070Z,13.42
2023-05-12T10:04:23.266Z,13.43
2023-05-12T10:06:51.076Z,13.57
2023-05-12T10:09:34.347Z,13.60
2023-05-12T10:12:03.363Z,13.70
2023-05-12T10:14:31.775Z,13.68
2023-05-12T10:16:59.790Z,13.87
2023-05-12T10:19:29.043Z,13.54
2023-05-12T10:21:59.937Z,13.94
2023-05-12T10:24:28.342Z,14.10
2023-05-12T10:26:56.927Z,13.52
2023-05-12T10:29:30.501Z,13.86
2023-05-12T10:31:59.360Z,13.44
2023-05-12T10:34:34.102Z,13.39
2023-05-12T10:37:04.007Z,13.61
2023-05-12T10:39:33.182Z,13.65
2023-05-12T10:42:09.981Z,13.84
2023-05-12T10:44:48.071Z,13.61
2023-05-12T10:47:16.432Z,13.63
2023-05-12T10:49:44.868Z,13.51
2023-05-12T10:52:13.625Z,13.79
2023-05-12T10:54:46.210Z,13.72
2023-05-12T10:57:18.381Z,13.21
2023-05-12T10:59:51.557Z,13.87
2023-05-12T11:02:21.050Z,13.60
2023-05-12T11:04:51.376Z,13.56
2023-05-12T11:07:30.419Z,13.76
2023-05-12T11:10:01.267Z,13.95
2023-05-12T11:12:33.217Z,13.97
2023-05-12T11:15:02.235Z,14.20
2023-05-12T11:17:30.112Z,13.98
2023-05-12T11:19:58.588Z,13.65
2023-05-12T11:22:27.135Z,13.83
2023-05-12T11:24:54.956Z,13.84
2023-05-12T11:27:24.190Z,13.99
2023-05-12T11:29:56.378Z,14.41
2023-05-12T11:32:24.191Z,14.14
2023-05-12T11:34:52.910Z,14.14
2023-05-12T11:37:21.578Z,13.27
2023-05-12T11:39:49.588Z,13.43
2023-05-12T11:42:20.050Z,13.56
2023-05-12T11:44:49.093Z,13.55
2023-05-12T11:47:18.006Z,13.21
2023-05-12T11:49:46.581Z,12.95
2023-05-12T11:52:14.724Z,13.37
2023-05-12T11:54:49.775Z,13.51
2023-05-12T11:57:26.300Z,13.51
2023-05-12T11:59:58.663Z,13.82
2023-05-12T12:02:26.945Z,13.95
2023-05-12T12:04:55.300Z,14.18
2023-05-12T12:07:33.566Z,14.08
2023-05-12T12:10:14.812Z,13.67
2023-05-12T12:12:44.834Z,13.93
2023-05-12T12:15:51.296Z,13.54
2023-05-12T12:18:32.636Z,13.71
2023-05-12T12:21:00.704Z,13.92
2023-05-12T12:23:40.485Z,13.70
2023-05-12T12:26:26.289Z,13.76
2023-05-12T12:29:02.605Z,13.82
2023-05-12T12:31:31.896Z,13.54
2023-05-12T12:34:01.284Z,13.57
2023-05-12T12:36:32.144Z,13.87
2023-05-12T12:39:00.619Z,14.04
2023-05-12T12:41:34.770Z,13.09
2023-05-12T12:44:40.153Z,13.42
2023-05-12T12:47:09.228Z,13.53
2023-05-12T12:49:43.197Z,13.53
2023-05-12T12:52:12.913Z,13.47
2023-05-12T12:54:41.264Z,13.31
2023-05-12T12:57:09.140Z,13.53
2023-05-12T12:59:40.316Z,13.27
2023-05-12T13:02:09.337Z,13.24
2023-05-12T13:04:37.413Z,13.93
2023-05-12T13:07:06.161Z,13.42
2023-05-12T13:09:34.514Z,13.08
2023-05-12T13:12:02.468Z,12.91
2023-05-12T13:14:30.380Z,12.96
2023-05-12T13:16:58.741Z,13.36
2023-05-12T13:19:26.575Z,13.20
2023-05-12T13:21:54.375Z,13.14
2023-05-12T13:24:22.562Z,13.39
2023-05-12T13:26:51.450Z,13.40
2023-05-12T13:29:19.497Z,13.59
2023-05-12T13:31:47.647Z,13.34
2023-05-12T13:34:15.540Z,13.00
2023-05-12T13:36:43.381Z,12.84
2023-05-12T13:39:11.824Z,12.95
2023-05-12T13:41:39.755Z,13.04
2023-05-12T13:44:07.592Z,13.47
2023-05-12T13:46:36.470Z,13.54
2023-05-12T13:49:04.395Z,13.35
2023-05-12T13:51:32.770Z,13.49
2023-05-12T13:54:00.945Z,13.55
2023-05-12T13:56:28.779Z,13.30
2023-05-12T13:58:56.708Z,13.33
2023-05-12T14:01:25.053Z,13.50
2023-05-12T14:03:53.558Z,13.54
2023-05-12T14:06:21.329Z,13.47
2023-05-12T14:08:49.457Z,13.17
2023-05-12T14:11:19.530Z,13.34
2023-05-12T14:13:47.356Z,13.09
2023-05-12T14:16:15.932Z,13.02
2023-05-12T14:18:44.292Z,13.28
2023-05-12T14:21:12.267Z,13.01
2023-05-12T14:23:40.072Z,13.18
2023-05-12T14:26:08.313Z,13.18
2023-05-12T14:28:36.346Z,13.30
2023-05-12T14:31:04.246Z,13.20
2023-05-12T14:33:32.732Z,12.98
2023-05-12T14:36:07.112Z,12.97
2023-05-12T14:38:36.187Z,13.20
2023-05-12T14:41:04.349Z,12.94
2023-05-12T14:43:32.150Z,13.24
2023-05-12T14:46:00.743Z,13.43
2023-05-12T14:48:28.660Z,13.26
2023-05-12T14:50:56.831Z,13.13
2023-05-12T14:53:25.150Z,12.92
2023-05-12T14:55:53.330Z,12.94
2023-05-12T14:58:24.571Z,13.13
2023-05-12T15:00:53.216Z,13.16
2023-05-12T15:03:21.399Z,13.23
2023-05-12T15:08:21.952Z,13.14
2023-05-12T15:10:49.976Z,13.26
2023-05-12T15:13:20.499Z,13.37
2023-05-12T15:15:49.370Z,13.03
2023-05-12T15:18:17.561Z,13.39
2023-05-12T15:20:46.176Z,13.21
2023-05-12T15:23:19.260Z,13.16
2023-05-12T15:25:48.896Z,13.11
2023-05-12T15:28:17.636Z,13.25
2023-05-12T15:30:45.840Z,13.43
2023-05-12T15:33:13.798Z,13.23
2023-05-12T15:35:42.397Z,13.52
2023-05-12T15:38:11.923Z,13.07
2023-05-12T15:40:40.622Z,13.08
2023-05-12T15:43:08.877Z,12.93
2023-05-12T15:45:37.667Z,12.60
2023-05-12T15:48:08.738Z,12.87
2023-05-12T15:50:38.704Z,12.98
2023-05-12T15:53:07.285Z,12.95
2023-05-12T15:55:35.127Z,12.99
2023-05-12T15:58:04.439Z,12.76
2023-05-12T16:00:32.368Z,12.67
2023-05-12T16:03:02.110Z,12.64
2023-05-12T16:05:30.254Z,12.91
2023-05-12T16:07:58.275Z,12.77
2023-05-12T16:10:26.540Z,13.07
2023-05-12T16:12:54.422Z,12.90
2023-05-12T16:15:22.397Z,13.07
2023-05-12T16:17:50.875Z,12.98
2023-05-12T16:20:19.084Z,12.84
2023-05-12T16:22:46.862Z,12.95
2023-05-12T16:25:15.379Z,12.70
2023-05-12T16:27:43.209Z,12.49
2023-05-12T16:30:12.624Z,12.58
2023-05-12T16:32:40.904Z,13.09
2023-05-12T16:35:08.913Z,12.80
2023-05-12T16:37:36.722Z,12.71
2023-05-12T16:40:05.166Z,12.78
2023-05-12T16:42:33.436Z,12.77
2023-05-12T16:45:01.788Z,12.85
2023-05-12T16:47:30.078Z,13.06
2023-05-12T16:50:00.934Z,13.11
2023-05-12T16:52:28.833Z,12.87
2023-05-12T16:54:57.677Z,12.88
2023-05-12T16:57:25.527Z,12.64
2023-05-12T16:59:53.398Z,12.97
2023-05-12T17:02:21.825Z,12.94
2023-05-12T17:04:49.778Z,12.88
2023-05-12T17:07:17.646Z,12.49
2023-05-12T17:09:45.886Z,12.49
2023-05-12T17:12:14.535Z,12.45
2023-05-12T17:14:44.352Z,12.75
2023-05-12T17:17:14.247Z,12.58
2023-05-12T17:19:42.237Z,12.46
2023-05-12T17:22:10.073Z,12.29
2023-05-12T17:24:38.436Z,12.44
2023-05-12T17:27:06.306Z,12.52
2023-05-12T17:29:34.240Z,12.75
2023-05-12T17:32:02.458Z,12.41
2023-05-12T17:34:30.177Z,12.32
2023-05-12T17:36:58.143Z,12.42
2023-05-12T17:39:26.548Z,12.43
2023-05-12T17:41:54.395Z,12.66
2023-05-12T17:44:22.201Z,12.49
2023-05-12T17:46:50.766Z,12.39
2023-05-12T17:49:18.666Z,12.52
2023-05-12T17:51:47.282Z,12.20
2023-05-12T17:54:15.768Z,12.63
2023-05-12T17:56:44.953Z,12.41
2023-05-12T17:59:12.860Z,12.74
2023-05-12T18:01:41.543Z,12.74
2023-05-12T18:04:09.990Z,12.71
2023-05-12T18:06:37.884Z,13.00
2023-05-12T18:09:06.441Z,12.96
2023-05-12T18:11:35.180Z,12.57
2023-05-12T18:14:06.207Z,12.64
2023-05-12T18:16:34.526Z,12.82
2023-05-12T18:19:03.100Z,12.62
2023-05-12T18:21:31.632Z,12.89
2023-05-12T18:24:01.259Z,12.50
2023-05-12T18:26:29.761Z,12.60
2023-05-12T18:28:57.592Z,12.51
2023-05-12T18:31:27.401Z,12.57
2023-05-12T18:33:55.732Z,12.31
2023-05-12T18:36:23.609Z,12.75
2023-05-12T18:38:52.472Z,12.70
2023-05-12T18:41:20.281Z,12.57
2023-05-12T18:43:48.390Z,12.56
2023-05-12T18:46:17.292Z,11.86
2023-05-12T18:48:45.749Z,12.08
2023-05-12T18:51:13.501Z,12.37
2023-05-12T18:53:41.582Z,12.23
2023-05-12T18:56:09.300Z,12.28
2023-05-12T18:58:39.419Z,11.89
2023-05-12T19:01:07.788Z,12.10
2023-05-12T19:03:35.730Z,12.24
2023-05-12T19:06:03.628Z,11.91
2023-05-12T19:08:31.837Z,11.91
2023-05-12T19:11:00.128Z,12.05
2023-05-12T19:13:27.985Z,12.38
2023-05-12T19:15:56.106Z,12.10
2023-05-12T19:18:24.068Z,12.12
2023-05-12T19:20:52.021Z,12.00
2023-05-12T19:23:20.292Z,11.99
2023-05-12T19:25:48.051Z,12.09
2023-05-12T19:28:15.852Z,12.07
2023-05-12T19:30:44.034Z,12.23
2023-05-12T19:33:11.734Z,12.00
2023-05-12T19:35:39.554Z,11.93
2023-05-12T19:38:07.665Z,12.10
2023-05-12T19:40:35.445Z,12.27
2023-05-12T19:43:05.357Z,12.20
2023-05-12T19:45:33.474Z,12.14
2023-05-12T19:48:01.456Z,11.93
2023-05-12T19:50:29.428Z,12.11
2023-05-12T19:52:57.612Z,11.74
2023-05-12T19:55:25.594Z,11.95
2023-05-12T19:57:53.352Z,12.10
2023-05-12T20:00:22.466Z,12.27
2023-05-12T20:02:50.863Z,11.83
2023-05-12T20:05:18.902Z,11.74
2023-05-12T20:07:46.842Z,12.10
2023-05-12T20:10:14.982Z,11.98
2023-05-12T20:12:42.675Z,12.24
2023-05-12T20:15:11.671Z,12.20
2023-05-12T20:17:39.878Z,12.51
2023-05-12T20:20:08.137Z,11.98
2023-05-12T20:22:35.902Z,12.13
2023-05-12T20:25:04.941Z,11.84
2023-05-12T20:27:33.919Z,11.80
2023-05-12T20:30:01.723Z,12.18
2023-05-12T20:32:30.491Z,12.01
2023-05-12T20:34:58.202Z,11.82
2023-05-12T20:37:26.010Z,12.20
2023-05-12T20:39:57.102Z,11.86
2023-05-12T20:42:24.822Z,12.17
2023-05-12T20:44:52.479Z,12.00
2023-05-12T20:47:20.609Z,12.17
2023-05-12T20:49:48.443Z,11.95
2023-05-12T20:52:16.254Z,11.94
2023-05-12T20:54:44.425Z,12.17
2023-05-12T20:57:12.632Z,12.20
2023-05-12T20:59:40.481Z,11.93
2023-05-12T21:02:08.876Z,12.11
2023-05-12T21:04:37.045Z,12.11
2023-05-12T21:07:04.916Z,12.17
2023-05-12T21:09:33.109Z,11.90
2023-05-12T21:12:00.910Z,12.05
2023-05-12T21:14:28.881Z,12.31
2023-05-12T21:16:57.120Z,12.45
2023-05-12T21:19:24.841Z,12.47
2023-05-12T21:21:52.591Z,12.25
2023-05-12T21:24:20.748Z,11.88
2023-05-12T21:26:48.529Z,12.24
2023-05-12T21:29:16.565Z,12.11
2023-05-12T21:31:44.809Z,12.03
2023-05-12T21:34:12.672Z,12.00
2023-05-12T21:36:40.665Z,12.40
2023-05-12T21:39:08.838Z,12.37
2023-05-12T21:41:38.605Z,12.38
2023-05-12T21:44:11.111Z,11.93
2023-05-12T21:46:39.889Z,12.36
2023-05-12T21:49:07.755Z,12.24
2023-05-12T21:51:35.547Z,12.09
2023-05-12T21:54:03.911Z,12.02
2023-05-12T21:56:31.596Z,12.26
2023-05-12T21:58:59.364Z,12.30
2023-05-12T22:01:27.707Z,12.27
2023-05-12T22:03:58.839Z,12.22
2023-05-12T22:06:27.130Z,12.60
2023-05-12T22:08:56.052Z,12.37
2023-05-12T22:11:24.481Z,12.36
2023-05-12T22:13:52.233Z,12.33
2023-05-12T22:16:25.755Z,12.39
2023-05-12T22:18:57.296Z,12.50
2023-05-12T22:21:25.632Z,12.66
2023-05-12T22:23:53.383Z,12.06
2023-05-12T22:26:21.165Z,12.47
2023-05-12T22:28:49.217Z,12.46
2023-05-12T22:31:16.879Z,12.48
2023-05-12T22:33:44.661Z,12.17
2023-05-12T22:36:12.829Z,12.48
2023-05-12T22:38:40.563Z,12.38
2023-05-12T22:41:08.263Z,12.57
2023-05-12T22:43:36.471Z,12.36
2023-05-12T22:46:06.158Z,12.74
2023-05-12T22:48:38.660Z,12.88
2023-05-12T22:51:07.461Z,12.83
2023-05-12T22:53:41.453Z,12.46
2023-05-12T22:56:10.191Z,12.42
2023-05-12T22:58:38.185Z,12.25
2023-05-12T23:01:06.438Z,12.15
2023-05-12T23:03:34.725Z,12.13
2023-05-12T23:06:02.522Z,12.50
2023-05-12T23:08:30.666Z,12.40
2023-05-12T23:10:58.833Z,12.44
2023-05-12T23:13:26.514Z,12.42
2023-05-12T23:15:54.518Z,12.27
2023-05-12T23:18:22.767Z,12.36
2023-05-12T23:20:50.841Z,12.25
2023-05-12T23:23:18.637Z,12.36
2023-05-12T23:25:47.176Z,12.39
2023-05-12T23:28:14.952Z,12.16
2023-05-12T23:30:42.681Z,12.20
2023-05-12T23:33:11.738Z,12.13
2023-05-12T23:35:39.624Z,12.32
2023-05-12T23:38:07.654Z,12.18
2023-05-12T23:40:39.438Z,12.60
2023-05-12T23:43:07.256Z,12.41
2023-05-12T23:45:35.406Z,12.68
2023-05-12T23:48:03.146Z,12.40
2023-05-12T23:50:30.863Z,12.33
2023-05-12T23:52:59.038Z,12.43
2023-05-12T23:55:26.831Z,12.27
2023-05-12T23:57:54.641Z,12.22
